Time;durP1;ratioP1;P1;durP2;ratioP2;P2;SDS_P1;SDS_P2;PMS_P1;PMS_P2;Temp;Humidity;BMP_temperature;BMP_pressure;BME280_temperature;BME280_humidity;BME280_pressure;Samples;Min_cycle;Max_cycle;Signal;HPM_P1;HPM_P2
2020/12/28 00:00:08;;;;;;;14.05;9.23;;;1.60;74.80;;;;;;5051607;28;20041;-66
2020/12/28 00:02:34;;;;;;;15.10;9.63;;;1.60;74.90;;;;;;5052910;28;20021;-66
2020/12/28 00:05:01;;;;;;;13.23;8.73;;;1.60;75.00;;;;;;5054235;28;20021;-66
2020/12/28 00:07:26;;;;;;;13.63;9.20;;;1.70;75.00;;;;;;5053677;28;20033;-66
2020/12/28 00:09:52;;;;;;;14.35;9.20;;;1.70;75.00;;;;;;5048871;28;20359;-66
2020/12/28 00:12:18;;;;;;;16.25;10.43;;;1.70;74.90;;;;;;5054885;28;20021;-66
2020/12/28 00:14:44;;;;;;;15.93;10.05;;;1.80;74.50;;;;;;5056573;28;20035;-66
2020/12/28 00:17:12;;;;;;;13.73;9.20;;;1.80;74.10;;;;;;5055098;28;20386;-66
2020/12/28 00:19:38;;;;;;;13.88;8.38;;;1.80;74.00;;;;;;5067600;28;20119;-66
2020/12/28 00:22:04;;;;;;;12.25;8.32;;;1.70;74.10;;;;;;5056127;28;20529;-66
2020/12/28 00:24:30;;;;;;;13.20;9.23;;;1.70;74.20;;;;;;5059060;28;20051;-66
2020/12/28 00:26:55;;;;;;;14.48;8.75;;;1.70;74.20;;;;;;5056939;28;20033;-66
2020/12/28 00:29:21;;;;;;;15.02;9.27;;;1.80;74.30;;;;;;5055320;28;20160;-66
2020/12/28 00:31:47;;;;;;;13.38;10.23;;;1.80;74.00;;;;;;5056152;28;20445;-66
2020/12/28 00:34:12;;;;;;;12.07;8.73;;;1.80;73.90;;;;;;5056385;28;20127;-66
2020/12/28 00:36:38;;;;;;;15.82;10.27;;;1.80;73.90;;;;;;5057967;28;20037;-66
2020/12/28 00:39:05;;;;;;;15.35;9.20;;;1.80;73.80;;;;;;5058268;28;20028;-66
2020/12/28 00:41:32;;;;;;;13.93;9.02;;;1.90;73.80;;;;;;5056100;28;20446;-66
2020/12/28 00:43:58;;;;;;;13.65;9.15;;;1.90;73.40;;;;;;5062850;28;20377;-66
2020/12/28 00:46:23;;;;;;;15.63;10.07;;;1.90;73.40;;;;;;5060505;28;20021;-66
2020/12/28 00:48:49;;;;;;;14.93;9.38;;;1.80;73.00;;;;;;5027683;28;20040;-66
2020/12/28 00:51:15;;;;;;;15.23;9.38;;;1.70;73.20;;;;;;5038264;28;20369;-66
2020/12/28 00:53:41;;;;;;;15.10;9.32;;;1.70;73.40;;;;;;5053965;28;20140;-66
2020/12/28 00:56:07;;;;;;;15.18;10.38;;;1.70;73.40;;;;;;5068430;28;20021;-66
2020/12/28 00:58:37;;;;;;;18.55;10.25;;;1.60;73.30;;;;;;5058080;28;20025;-66
2020/12/28 01:01:06;;;;;;;19.10;11.90;;;1.60;73.40;;;;;;5058083;28;20036;-66
2020/12/28 01:03:32;;;;;;;20.27;10.90;;;1.60;73.60;;;;;;5055006;28;20460;-66
2020/12/28 01:05:58;;;;;;;14.52;9.65;;;1.50;73.70;;;;;;5056027;28;20104;-65
2020/12/28 01:08:24;;;;;;;15.98;10.27;;;1.50;73.90;;;;;;5060520;28;20021;-66
2020/12/28 01:10:50;;;;;;;15.07;9.57;;;1.40;73.90;;;;;;5055774;28;20029;-66
2020/12/28 01:13:16;;;;;;;19.20;11.00;;;1.40;74.20;;;;;;5062980;28;20021;-66
2020/12/28 01:15:43;;;;;;;16.95;11.10;;;1.40;74.00;;;;;;5042845;28;20378;-66
2020/12/28 01:18:08;;;;;;;14.57;9.55;;;1.40;74.00;;;;;;5037234;28;20064;-66
2020/12/28 01:20:37;;;;;;;17.25;10.40;;;1.40;74.40;;;;;;5053148;28;20057;-66
2020/12/28 01:23:03;;;;;;;15.55;9.40;;;1.40;75.10;;;;;;5055998;28;20025;-66
2020/12/28 01:25:29;;;;;;;17.27;10.38;;;1.40;74.30;;;;;;5064240;28;20025;-66
2020/12/28 01:27:55;;;;;;;17.17;11.02;;;1.40;74.20;;;;;;5068708;28;20103;-66
2020/12/28 01:30:20;;;;;;;16.10;10.50;;;1.40;74.20;;;;;;5066525;28;20480;-66
2020/12/28 01:32:46;;;;;;;20.98;11.45;;;1.40;74.10;;;;;;5059862;28;20392;-66
2020/12/28 01:35:12;;;;;;;17.70;10.85;;;1.40;74.10;;;;;;5064475;28;20029;-66
2020/12/28 01:37:37;;;;;;;18.77;10.85;;;1.40;74.10;;;;;;5056623;28;20073;-66
2020/12/28 01:40:04;;;;;;;17.40;10.95;;;1.50;74.20;;;;;;5054344;28;20080;-66
2020/12/28 01:42:29;;;;;;;17.90;11.60;;;1.50;74.10;;;;;;5055706;28;20107;-66
2020/12/28 01:44:55;;;;;;;20.15;11.80;;;1.50;74.00;;;;;;5061740;28;20107;-66
2020/12/28 01:47:21;;;;;;;20.13;11.15;;;1.50;73.90;;;;;;5059008;28;20029;-66
2020/12/28 01:49:48;;;;;;;19.40;11.75;;;1.50;73.90;;;;;;5054924;28;20025;-66
2020/12/28 01:52:14;;;;;;;19.75;13.32;;;1.40;73.80;;;;;;5056293;28;20025;-66
2020/12/28 01:54:40;;;;;;;20.40;11.25;;;1.40;74.00;;;;;;5071443;28;20051;-66
2020/12/28 01:57:05;;;;;;;16.67;10.82;;;1.30;74.10;;;;;;5054033;28;20100;-66
2020/12/28 01:59:31;;;;;;;18.33;11.35;;;1.40;74.30;;;;;;5053277;28;20079;-66
2020/12/28 02:01:59;;;;;;;17.45;10.23;;;1.40;74.20;;;;;;5068281;28;20033;-66
2020/12/28 02:04:25;;;;;;;16.70;10.40;;;1.40;74.10;;;;;;5058000;28;20032;-66
2020/12/28 02:06:51;;;;;;;18.70;11.65;;;1.40;74.20;;;;;;5058561;28;20075;-66
2020/12/28 02:09:17;;;;;;;19.83;13.00;;;1.40;74.30;;;;;;5055269;28;20534;-66
2020/12/28 02:11:43;;;;;;;19.88;12.13;;;1.40;73.90;;;;;;5060592;28;20037;-66
2020/12/28 02:14:08;;;;;;;18.20;10.50;;;1.40;73.60;;;;;;5054082;28;20024;-66
2020/12/28 02:16:35;;;;;;;19.63;12.35;;;1.30;73.70;;;;;;5055198;28;20514;-66
2020/12/28 02:19:01;;;;;;;20.52;10.82;;;1.30;73.70;;;;;;5040881;28;20082;-66
2020/12/28 02:21:27;;;;;;;19.20;11.70;;;1.30;73.80;;;;;;5036401;28;20033;-66
2020/12/28 02:23:53;;;;;;;17.52;11.60;;;1.30;74.10;;;;;;5053468;28;20023;-66
2020/12/28 02:26:19;;;;;;;22.05;12.63;;;1.30;73.80;;;;;;5054057;28;20088;-66
2020/12/28 02:28:44;;;;;;;20.67;11.15;;;1.30;73.80;;;;;;5053708;28;20043;-66
2020/12/28 02:31:10;;;;;;;16.65;11.15;;;1.20;73.70;;;;;;5052222;28;20444;-65
2020/12/28 02:33:40;;;;;;;18.25;10.48;;;1.20;73.80;;;;;;5052997;28;20048;-66
2020/12/28 02:36:08;;;;;;;17.70;11.63;;;1.20;73.80;;;;;;5052127;28;20060;-66
2020/12/28 02:38:35;;;;;;;17.95;10.82;;;1.20;73.90;;;;;;5061220;28;20036;-66
2020/12/28 02:41:04;;;;;;;14.18;9.00;;;1.20;74.00;;;;;;5054232;28;20476;-66
2020/12/28 02:43:30;;;;;;;15.82;10.18;;;1.20;74.50;;;;;;5045649;28;20021;-65
2020/12/28 02:45:57;;;;;;;12.18;8.55;;;1.30;74.50;;;;;;5058361;28;20036;-66
2020/12/28 02:48:26;;;;;;;15.10;9.73;;;1.30;74.20;;;;;;5057007;28;20037;-66
2020/12/28 02:50:52;;;;;;;14.18;9.10;;;1.30;74.00;;;;;;5054684;28;20029;-66
2020/12/28 02:53:18;;;;;;;14.70;9.85;;;1.40;74.00;;;;;;5063151;28;20033;-66
2020/12/28 02:55:43;;;;;;;13.55;8.88;;;1.40;74.70;;;;;;5053820;28;20025;-66
2020/12/28 02:58:09;;;;;;;15.73;9.52;;;1.50;74.00;;;;;;5063893;28;20024;-66
2020/12/28 03:00:35;;;;;;;17.77;10.27;;;1.50;73.80;;;;;;5056518;28;20039;-66
2020/12/28 03:03:01;;;;;;;15.93;10.00;;;1.60;73.50;;;;;;5060880;28;20393;-66
2020/12/28 03:05:27;;;;;;;15.30;9.50;;;1.60;73.60;;;;;;5055323;28;20116;-66
2020/12/28 03:07:52;;;;;;;16.17;10.02;;;1.60;73.60;;;;;;5059891;28;20411;-66
2020/12/28 03:10:18;;;;;;;13.18;9.10;;;1.60;73.40;;;;;;5056603;28;20040;-66
2020/12/28 03:12:44;;;;;;;14.82;9.93;;;1.70;73.40;;;;;;5053611;28;20487;-66
2020/12/28 03:15:09;;;;;;;16.98;11.13;;;1.70;73.10;;;;;;5062500;28;20024;-66
2020/12/28 03:17:35;;;;;;;20.77;12.20;;;1.70;72.90;;;;;;5053412;28;20075;-66
2020/12/28 03:20:01;;;;;;;18.83;10.50;;;1.70;72.90;;;;;;5061727;28;20555;-66
2020/12/28 03:22:26;;;;;;;17.67;10.88;;;1.70;73.10;;;;;;5058679;28;20361;-66
2020/12/28 03:24:52;;;;;;;17.60;11.20;;;1.70;73.10;;;;;;5051510;28;20214;-66
2020/12/28 03:27:18;;;;;;;18.08;11.13;;;1.70;73.10;;;;;;5048913;28;20033;-66
2020/12/28 03:29:43;;;;;;;20.00;11.60;;;1.70;73.30;;;;;;5064208;28;20079;-66
2020/12/28 03:32:09;;;;;;;16.63;11.20;;;1.80;73.30;;;;;;5058984;28;20366;-66
2020/12/28 03:34:35;;;;;;;18.85;10.88;;;1.70;73.10;;;;;;5053238;28;20049;-66
2020/12/28 03:37:01;;;;;;;19.63;10.95;;;1.80;73.20;;;;;;5059683;28;20025;-66
2020/12/28 03:39:27;;;;;;;19.50;11.05;;;1.80;73.20;;;;;;5061941;28;20086;-66
2020/12/28 03:41:52;;;;;;;15.93;10.80;;;1.80;73.20;;;;;;5055870;28;20543;-66
2020/12/28 03:44:18;;;;;;;17.98;12.23;;;1.80;72.90;;;;;;5052181;28;20040;-66
2020/12/28 03:46:44;;;;;;;15.23;9.70;;;1.80;72.80;;;;;;5055828;28;20032;-66
2020/12/28 03:49:09;;;;;;;19.63;11.52;;;1.70;72.80;;;;;;5055139;28;20029;-66
2020/12/28 03:51:35;;;;;;;15.85;10.48;;;1.70;72.90;;;;;;5052235;28;20083;-66
2020/12/28 03:54:01;;;;;;;16.48;10.65;;;1.70;72.90;;;;;;5054445;28;20397;-66
2020/12/28 03:56:26;;;;;;;18.35;10.85;;;1.70;72.90;;;;;;5051918;28;20024;-66
2020/12/28 03:58:52;;;;;;;16.80;10.55;;;1.70;73.00;;;;;;5054773;28;20021;-66
2020/12/28 04:01:18;;;;;;;19.13;11.07;;;1.70;73.20;;;;;;5055903;28;20026;-66
2020/12/28 04:03:43;;;;;;;16.05;10.38;;;1.80;73.30;;;;;;5052899;28;20041;-66
2020/12/28 04:06:10;;;;;;;16.67;10.18;;;1.80;73.20;;;;;;5051281;28;20158;-66
2020/12/28 04:08:35;;;;;;;17.77;10.13;;;1.80;73.00;;;;;;5052268;28;20349;-66
2020/12/28 04:11:01;;;;;;;14.10;9.98;;;1.80;72.80;;;;;;5057705;28;20036;-66
2020/12/28 04:13:27;;;;;;;16.85;10.35;;;1.80;72.90;;;;;;5051277;28;20044;-66
2020/12/28 04:15:53;;;;;;;16.05;9.95;;;1.80;72.70;;;;;;5057108;28;20032;-66
2020/12/28 04:18:19;;;;;;;14.43;9.43;;;1.80;72.80;;;;;;5052453;28;20020;-66
2020/12/28 04:20:44;;;;;;;13.07;9.95;;;1.80;73.20;;;;;;5054224;28;20025;-66
2020/12/28 04:23:10;;;;;;;14.98;9.95;;;1.90;72.90;;;;;;5061887;28;20032;-66
2020/12/28 04:25:36;;;;;;;15.60;10.02;;;1.90;72.60;;;;;;5052649;28;20036;-66
2020/12/28 04:28:01;;;;;;;14.63;10.07;;;1.90;72.50;;;;;;5060252;28;20024;-66
2020/12/28 04:30:27;;;;;;;14.90;10.13;;;1.90;72.70;;;;;;5051168;28;20546;-66
2020/12/28 04:32:53;;;;;;;14.18;9.70;;;1.90;72.90;;;;;;5052131;28;20100;-66
2020/12/28 04:35:18;;;;;;;14.35;9.30;;;1.90;72.90;;;;;;5053168;28;20469;-66
2020/12/28 04:37:44;;;;;;;16.35;9.80;;;1.90;72.90;;;;;;5050908;28;20730;-66
2020/12/28 04:40:10;;;;;;;15.93;9.38;;;1.90;72.90;;;;;;5052283;28;20064;-66
2020/12/28 04:42:41;;;;;;;16.75;9.48;;;1.90;72.80;;;;;;5056239;28;20025;-66
2020/12/28 04:45:07;;;;;;;14.10;9.70;;;2.00;72.90;;;;;;5057856;28;20033;-66
2020/12/28 04:47:33;;;;;;;15.90;9.45;;;2.00;73.10;;;;;;5052560;28;20083;-66
2020/12/28 04:50:00;;;;;;;21.92;12.70;;;2.00;73.30;;;;;;5054424;28;20021;-65
2020/12/28 04:52:27;;;;;;;20.63;13.75;;;1.90;73.70;;;;;;5051845;28;20036;-66
2020/12/28 04:54:53;;;;;;;23.58;13.77;;;1.90;73.90;;;;;;5039229;28;20021;-66
2020/12/28 04:57:18;;;;;;;28.85;16.77;;;1.90;74.30;;;;;;5057714;28;20559;-66
2020/12/28 04:59:44;;;;;;;28.60;16.52;;;1.80;74.60;;;;;;5059611;28;20016;-66
2020/12/28 05:02:10;;;;;;;29.38;18.02;;;1.70;74.80;;;;;;5064876;28;20032;-66
2020/12/28 05:04:36;;;;;;;29.85;18.60;;;1.70;75.20;;;;;;5069491;28;20567;-66
2020/12/28 05:07:06;;;;;;;33.55;17.58;;;1.60;75.40;;;;;;5058204;28;20208;-66
2020/12/28 05:09:33;;;;;;;30.50;19.75;;;1.60;75.80;;;;;;5040472;28;20029;-66
2020/12/28 05:12:01;;;;;;;38.75;20.58;;;1.50;76.00;;;;;;5063013;28;20363;-66
2020/12/28 05:14:28;;;;;;;35.75;20.10;;;1.40;76.20;;;;;;5065310;28;20025;-65
2020/12/28 05:17:04;;;;;;;36.28;20.15;;;1.40;76.70;;;;;;5062531;28;20035;-66
2020/12/28 05:19:32;;;;;;;29.40;18.95;;;1.30;76.60;;;;;;5054648;28;20503;-66
2020/12/28 05:21:59;;;;;;;28.10;17.60;;;1.30;76.80;;;;;;5056711;28;20025;-67
2020/12/28 05:24:25;;;;;;;33.45;19.35;;;1.30;77.30;;;;;;5059690;28;20076;-64
2020/12/28 05:26:51;;;;;;;32.17;19.23;;;1.30;77.00;;;;;;5064740;28;20484;-65
2020/12/28 05:29:20;;;;;;;33.45;19.35;;;1.30;77.00;;;;;;5072305;28;20047;-65
2020/12/28 05:31:48;;;;;;;34.75;20.77;;;1.30;77.10;;;;;;5061868;28;20063;-65
2020/12/28 05:34:17;;;;;;;28.80;19.38;;;1.20;77.30;;;;;;5055797;28;20024;-65
2020/12/28 05:36:46;;;;;;;33.72;20.05;;;1.20;77.60;;;;;;5054057;28;20040;-65
2020/12/28 05:39:15;;;;;;;34.10;18.83;;;1.20;77.80;;;;;;5054785;28;20025;-65
2020/12/28 05:42:12;;;;;;;31.92;18.30;;;1.20;77.50;;;;;;5055346;28;20021;-65
2020/12/28 05:44:39;;;;;;;28.67;18.27;;;1.20;77.60;;;;;;5064446;28;20388;-65
2020/12/28 05:47:11;;;;;;;31.50;18.33;;;1.20;77.60;;;;;;5054694;28;20032;-66
2020/12/28 05:49:42;;;;;;;35.88;18.73;;;1.20;77.60;;;;;;5057446;28;20429;-66
2020/12/28 05:52:10;;;;;;;30.50;19.27;;;1.10;78.00;;;;;;5054868;28;20382;-66
2020/12/28 05:54:36;;;;;;;30.17;18.98;;;1.20;78.20;;;;;;5057312;28;20043;-66
2020/12/28 05:57:03;;;;;;;30.65;19.50;;;1.20;78.40;;;;;;5062214;28;20044;-66
2020/12/28 05:59:34;;;;;;;31.75;18.65;;;1.20;78.60;;;;;;5060401;28;20500;-66
2020/12/28 06:02:00;;;;;;;32.00;18.55;;;1.20;78.50;;;;;;5048939;28;20064;-66
2020/12/28 06:04:27;;;;;;;30.63;19.35;;;1.10;78.20;;;;;;5056829;28;20531;-66
2020/12/28 06:07:00;;;;;;;28.15;17.75;;;1.10;78.00;;;;;;5060217;28;20048;-66
2020/12/28 06:09:27;;;;;;;32.20;19.13;;;1.10;78.20;;;;;;5054206;28;20028;-66
2020/12/28 06:12:05;;;;;;;28.70;17.33;;;1.10;78.20;;;;;;5066341;28;20025;-66
2020/12/28 06:14:36;;;;;;;34.40;18.92;;;1.10;78.60;;;;;;5051742;28;20089;-66
2020/12/28 06:17:10;;;;;;;31.50;19.70;;;1.10;78.60;;;;;;5055041;28;20116;-66
2020/12/28 06:19:37;;;;;;;30.55;18.30;;;1.10;78.40;;;;;;5054430;28;20033;-66
2020/12/28 06:22:16;;;;;;;30.73;18.20;;;1.10;78.30;;;;;;5053595;28;20017;-66
2020/12/28 06:24:42;;;;;;;27.17;18.08;;;1.10;78.50;;;;;;5067528;28;20025;-66
2020/12/28 06:27:09;;;;;;;32.30;18.38;;;1.10;78.40;;;;;;5056572;28;20024;-66
2020/12/28 06:29:37;;;;;;;27.60;18.08;;;1.10;78.60;;;;;;5054382;28;20084;-66
2020/12/28 06:32:14;;;;;;;31.25;18.63;;;1.10;78.50;;;;;;5056040;28;20159;-66
2020/12/28 06:34:40;;;;;;;31.10;19.80;;;1.20;78.60;;;;;;5054005;28;20024;-66
2020/12/28 06:37:07;;;;;;;30.98;19.63;;;1.20;78.40;;;;;;5053675;28;20029;-66
2020/12/28 06:39:33;;;;;;;32.63;17.83;;;1.20;78.30;;;;;;5057309;28;20064;-66
2020/12/28 06:42:13;;;;;;;31.42;19.27;;;1.20;78.30;;;;;;5053747;28;20056;-66
2020/12/28 06:44:40;;;;;;;26.23;16.88;;;1.20;78.50;;;;;;5050419;28;20370;-66
2020/12/28 06:47:20;;;;;;;29.42;17.75;;;1.20;78.00;;;;;;5053604;28;20071;-66
2020/12/28 06:49:47;;;;;;;25.73;16.38;;;1.20;78.80;;;;;;5046463;28;20026;-66
2020/12/28 06:52:12;;;;;;;26.40;17.05;;;1.20;78.30;;;;;;5051493;28;20070;-62
2020/12/28 06:54:42;;;;;;;30.42;17.45;;;1.30;78.10;;;;;;5055882;28;20104;-59
2020/12/28 06:57:08;;;;;;;28.95;18.83;;;1.30;77.90;;;;;;5048512;28;20048;-52
2020/12/28 06:59:35;;;;;;;34.42;22.05;;;1.30;77.80;;;;;;5051880;28;20104;-53
2020/12/28 07:02:01;;;;;;;32.15;19.98;;;1.30;77.80;;;;;;5049191;28;20025;-57
2020/12/28 07:04:31;;;;;;;28.73;17.48;;;1.30;78.00;;;;;;5044385;28;20025;-56
2020/12/28 07:07:01;;;;;;;27.77;17.33;;;1.30;77.80;;;;;;5049169;28;20033;-56
2020/12/28 07:09:27;;;;;;;29.35;18.85;;;1.30;77.90;;;;;;5048528;28;20025;-57
2020/12/28 07:11:54;;;;;;;27.58;17.48;;;1.40;77.90;;;;;;5046876;28;20027;-56
2020/12/28 07:14:20;;;;;;;27.30;16.55;;;1.40;77.90;;;;;;5045097;28;20032;-55
2020/12/28 07:16:56;;;;;;;32.53;18.98;;;1.40;77.90;;;;;;5056317;28;20107;-55
2020/12/28 07:19:22;;;;;;;30.25;17.17;;;1.40;77.50;;;;;;5051693;28;20138;-55
2020/12/28 07:21:48;;;;;;;29.42;17.65;;;1.30;77.50;;;;;;5054273;28;20372;-52
2020/12/28 07:24:13;;;;;;;30.70;17.65;;;1.40;77.80;;;;;;5055390;28;20025;-56
2020/12/28 07:26:43;;;;;;;29.75;18.65;;;1.40;77.70;;;;;;5051951;28;20028;-57
2020/12/28 07:29:16;;;;;;;32.15;18.70;;;1.30;77.90;;;;;;5051736;28;20041;-55
2020/12/28 07:31:43;;;;;;;35.88;20.35;;;1.30;77.90;;;;;;5046396;28;20029;-54
2020/12/28 07:34:20;;;;;;;34.78;20.85;;;1.30;78.00;;;;;;5051947;28;20063;-56
2020/12/28 07:36:48;;;;;;;34.97;19.75;;;1.30;78.60;;;;;;5055633;28;20300;-53
2020/12/28 07:39:14;;;;;;;30.02;18.30;;;1.20;78.40;;;;;;5050354;28;20025;-56
2020/12/28 07:41:41;;;;;;;30.63;18.10;;;1.20;78.60;;;;;;5049549;28;20060;-57
2020/12/28 07:44:11;;;;;;;28.33;18.25;;;1.20;78.80;;;;;;5053137;28;20040;-55
2020/12/28 07:47:08;;;;;;;32.33;18.73;;;1.30;78.80;;;;;;5055164;28;20057;-57
2020/12/28 07:49:41;;;;;;;31.83;17.92;;;1.30;79.20;;;;;;5057541;28;20029;-55
2020/12/28 07:52:10;;;;;;;33.00;18.23;;;1.30;79.00;;;;;;5055586;28;20025;-57
2020/12/28 07:54:58;;;;;;;29.50;18.80;;;1.40;78.60;;;;;;5047965;28;20407;-57
2020/12/28 07:57:57;;;;;;;27.23;16.55;;;1.40;78.70;;;;;;5053187;28;20027;-55
2020/12/28 08:00:28;;;;;;;29.90;17.60;;;1.40;78.60;;;;;;5041260;28;20033;-56
2020/12/28 08:03:16;;;;;;;30.38;18.70;;;1.40;78.10;;;;;;5041891;28;20529;-55
2020/12/28 08:05:43;;;;;;;31.95;19.52;;;1.40;77.90;;;;;;5050336;28;20779;-57
2020/12/28 08:08:25;;;;;;;31.52;19.73;;;1.40;78.20;;;;;;5047693;28;20107;-56
2020/12/28 08:10:56;;;;;;;29.75;19.33;;;1.40;78.00;;;;;;5046496;28;20417;-57
2020/12/28 08:13:26;;;;;;;31.48;17.73;;;1.30;77.90;;;;;;5047674;28;20032;-57
2020/12/28 08:15:52;;;;;;;29.27;17.65;;;1.30;78.00;;;;;;5058876;28;20036;-56
2020/12/28 08:18:18;;;;;;;36.05;18.90;;;1.40;78.00;;;;;;5051619;28;20033;-55
2020/12/28 08:20:55;;;;;;;28.70;17.30;;;1.40;77.90;;;;;;5053582;28;20087;-57
2020/12/28 08:23:25;;;;;;;29.13;17.10;;;1.40;78.00;;;;;;5044325;28;20120;-55
2020/12/28 08:25:51;;;;;;;28.05;19.25;;;1.40;77.70;;;;;;5042585;28;20046;-55
2020/12/28 08:28:19;;;;;;;28.95;17.55;;;1.40;77.80;;;;;;5044624;28;20415;-57
2020/12/28 08:30:44;;;;;;;28.98;18.25;;;1.40;77.90;;;;;;5048188;28;20056;-57
2020/12/28 08:33:10;;;;;;;31.85;17.67;;;1.40;77.80;;;;;;5034446;28;20040;-57
2020/12/28 08:35:46;;;;;;;31.63;16.92;;;1.40;77.80;;;;;;5046037;28;20477;-56
2020/12/28 08:38:12;;;;;;;28.00;18.17;;;1.50;77.70;;;;;;5041358;28;20020;-55
2020/12/28 08:40:38;;;;;;;26.27;15.98;;;1.50;77.60;;;;;;5046335;28;20558;-57
2020/12/28 08:43:03;;;;;;;32.88;18.80;;;1.50;77.80;;;;;;5050281;28;20041;-58
2020/12/28 08:45:29;;;;;;;30.90;17.90;;;1.60;77.40;;;;;;5048077;28;20139;-57
2020/12/28 08:47:57;;;;;;;35.33;19.00;;;1.60;77.00;;;;;;5054638;28;20038;-57
2020/12/28 08:50:24;;;;;;;29.38;19.05;;;1.60;77.60;;;;;;5050303;28;20464;-56
2020/12/28 08:52:54;;;;;;;31.90;18.55;;;1.60;77.50;;;;;;5049250;28;20102;-57
2020/12/28 08:55:21;;;;;;;27.45;16.38;;;1.70;77.70;;;;;;5047489;28;20053;-58
2020/12/28 08:57:51;;;;;;;29.17;18.85;;;1.70;77.20;;;;;;5054746;28;20461;-58
2020/12/28 09:00:17;;;;;;;28.08;17.42;;;1.70;76.80;;;;;;5042200;28;20041;-57
2020/12/28 09:02:51;;;;;;;26.20;16.65;;;1.70;76.90;;;;;;5044241;28;20052;-57
2020/12/28 09:05:17;;;;;;;30.77;18.50;;;1.70;77.10;;;;;;5047046;28;20760;-56
2020/12/28 09:07:42;;;;;;;28.83;17.63;;;1.80;76.70;;;;;;5052240;28;20029;-55
2020/12/28 09:10:08;;;;;;;31.23;18.77;;;1.70;76.80;;;;;;5051303;28;20029;-55
2020/12/28 09:12:34;;;;;;;35.28;19.35;;;1.70;76.70;;;;;;5046340;28;20119;-57
2020/12/28 09:15:00;;;;;;;27.70;16.92;;;1.70;76.50;;;;;;5046198;28;20397;-57
2020/12/28 09:17:25;;;;;;;29.50;18.42;;;1.70;76.70;;;;;;5048115;28;20104;-57
2020/12/28 09:19:51;;;;;;;29.85;18.00;;;1.70;76.90;;;;;;5044879;28;20108;-57
2020/12/28 09:22:17;;;;;;;33.28;19.05;;;1.70;76.80;;;;;;5051639;28;20052;-57
2020/12/28 09:24:42;;;;;;;30.52;17.42;;;1.80;76.40;;;;;;5050936;28;20545;-57
2020/12/28 09:27:08;;;;;;;31.00;17.63;;;1.80;76.60;;;;;;5045099;28;20052;-57
2020/12/28 09:29:34;;;;;;;30.85;17.65;;;1.80;76.50;;;;;;5046296;28;20045;-57
2020/12/28 09:31:59;;;;;;;27.73;16.92;;;1.80;76.30;;;;;;5049015;28;20092;-56
2020/12/28 09:34:25;;;;;;;36.35;19.25;;;1.80;76.30;;;;;;5051578;28;20037;-57
2020/12/28 09:37:07;;;;;;;27.13;17.30;;;1.80;76.30;;;;;;5049516;28;20029;-55
2020/12/28 09:39:34;;;;;;;32.33;18.90;;;1.80;76.30;;;;;;5045692;28;20040;-57
2020/12/28 09:42:00;;;;;;;32.42;18.10;;;1.80;76.40;;;;;;5050150;28;20025;-56
2020/12/28 09:44:26;;;;;;;32.78;18.40;;;1.80;76.40;;;;;;5053207;28;20120;-57
2020/12/28 09:46:52;;;;;;;30.45;16.83;;;1.80;76.40;;;;;;5042726;28;20064;-57
2020/12/28 09:49:19;;;;;;;28.38;16.10;;;1.70;76.60;;;;;;5050679;28;20025;-57
2020/12/28 09:51:52;;;;;;;26.40;16.58;;;1.80;76.90;;;;;;5048247;28;20076;-54
2020/12/28 09:54:19;;;;;;;26.42;16.65;;;1.80;76.90;;;;;;5050970;28;20044;-56
2020/12/28 09:56:44;;;;;;;29.15;17.38;;;1.80;76.70;;;;;;5048255;28;20089;-55
2020/12/28 09:59:10;;;;;;;31.83;16.40;;;1.80;76.80;;;;;;5046300;28;20124;-57
2020/12/28 10:01:36;;;;;;;29.33;17.02;;;1.80;76.80;;;;;;5044354;28;20037;-56
2020/12/28 10:04:01;;;;;;;29.65;16.60;;;1.80;76.80;;;;;;5047085;28;20806;-54
2020/12/28 10:06:36;;;;;;;26.70;15.27;;;1.80;77.10;;;;;;5049943;28;20036;-55
2020/12/28 10:09:10;;;;;;;26.95;15.00;;;1.80;77.10;;;;;;5048000;28;20473;-55
2020/12/28 10:11:36;;;;;;;28.38;17.50;;;1.80;77.20;;;;;;5053409;28;20055;-55
2020/12/28 10:14:02;;;;;;;24.88;15.10;;;1.80;77.50;;;;;;5047158;28;20063;-55
2020/12/28 10:16:29;;;;;;;27.05;17.10;;;1.80;77.50;;;;;;5046454;28;20033;-55
2020/12/28 10:18:55;;;;;;;24.10;14.43;;;1.80;77.30;;;;;;5048562;28;20112;-53
2020/12/28 10:21:22;;;;;;;25.88;15.73;;;1.80;77.40;;;;;;5047356;28;20091;-56
2020/12/28 10:23:48;;;;;;;26.58;15.60;;;1.90;77.50;;;;;;5045032;28;20033;-56
2020/12/28 10:26:22;;;;;;;27.15;14.88;;;1.90;77.30;;;;;;5046206;28;20033;-55
2020/12/28 10:28:49;;;;;;;26.13;14.75;;;1.90;77.40;;;;;;5050038;28;20032;-56
2020/12/28 10:31:16;;;;;;;25.23;15.50;;;1.90;77.40;;;;;;5046580;28;20372;-56
2020/12/28 10:33:43;;;;;;;23.63;14.93;;;1.90;77.30;;;;;;5045245;28;20112;-58
2020/12/28 10:36:14;;;;;;;23.42;14.30;;;1.90;77.40;;;;;;5051521;28;20044;-57
2020/12/28 10:38:40;;;;;;;25.58;14.73;;;1.90;77.50;;;;;;5050649;28;20039;-57
2020/12/28 10:41:06;;;;;;;20.42;14.07;;;1.80;77.40;;;;;;5047845;28;20041;-55
2020/12/28 10:43:32;;;;;;;24.77;16.00;;;1.80;77.70;;;;;;5045345;28;20028;-57
2020/12/28 10:45:57;;;;;;;26.75;14.32;;;1.80;77.70;;;;;;5044878;28;20037;-55
2020/12/28 10:48:24;;;;;;;27.42;15.25;;;1.80;77.90;;;;;;5038537;28;20029;-58
2020/12/28 10:50:49;;;;;;;24.88;15.07;;;1.80;78.20;;;;;;5044609;28;20576;-57
2020/12/28 10:53:15;;;;;;;26.00;14.93;;;1.90;78.20;;;;;;5043583;28;20037;-57
2020/12/28 10:55:41;;;;;;;24.33;15.02;;;1.80;78.20;;;;;;5042344;28;20508;-58
2020/12/28 10:58:07;;;;;;;24.20;15.77;;;1.80;78.10;;;;;;5047220;28;20036;-58
2020/12/28 11:00:32;;;;;;;27.92;15.25;;;1.80;78.30;;;;;;5033244;28;20037;-57
2020/12/28 11:02:58;;;;;;;25.02;13.73;;;1.80;78.30;;;;;;5050910;28;20039;-59
2020/12/28 11:05:24;;;;;;;27.15;14.90;;;1.80;78.40;;;;;;5049880;28;20037;-58
2020/12/28 11:07:49;;;;;;;27.38;15.38;;;1.80;78.50;;;;;;5050812;28;20029;-57
2020/12/28 11:10:15;;;;;;;25.17;15.45;;;1.80;78.50;;;;;;5034220;28;20044;-58
2020/12/28 11:12:41;;;;;;;21.65;14.70;;;1.80;78.60;;;;;;5049105;28;20029;-57
2020/12/28 11:15:06;;;;;;;27.25;14.80;;;1.80;78.60;;;;;;5043410;28;20061;-58
2020/12/28 11:17:32;;;;;;;24.27;14.25;;;1.80;78.40;;;;;;5046214;28;20717;-56
2020/12/28 11:19:58;;;;;;;30.48;14.80;;;1.80;78.50;;;;;;5051798;28;20033;-58
2020/12/28 11:22:26;;;;;;;29.00;15.10;;;1.80;78.60;;;;;;5046976;28;20109;-57
2020/12/28 11:24:51;;;;;;;21.65;13.75;;;1.90;78.60;;;;;;5042314;28;21069;-56
2020/12/28 11:27:17;;;;;;;24.25;13.43;;;1.80;78.70;;;;;;5048096;28;20095;-59
2020/12/28 11:29:43;;;;;;;24.33;14.15;;;1.90;78.70;;;;;;5040631;28;20135;-58
2020/12/28 11:32:08;;;;;;;25.30;13.23;;;1.90;78.50;;;;;;5048978;28;20029;-58
2020/12/28 11:34:34;;;;;;;22.17;13.95;;;1.90;78.40;;;;;;5042420;28;20038;-59
2020/12/28 11:37:00;;;;;;;24.02;12.95;;;2.00;78.70;;;;;;5043248;28;20040;-59
2020/12/28 11:39:25;;;;;;;22.92;13.05;;;2.00;78.60;;;;;;5039705;28;20943;-58
2020/12/28 11:41:54;;;;;;;22.25;13.70;;;2.00;78.60;;;;;;5046469;28;20033;-57
2020/12/28 11:44:20;;;;;;;21.58;13.85;;;2.10;78.20;;;;;;5031499;28;20507;-59
2020/12/28 11:46:46;;;;;;;21.35;12.73;;;2.00;78.10;;;;;;5049625;28;20037;-57
2020/12/28 11:49:11;;;;;;;19.55;12.63;;;2.00;78.20;;;;;;5039209;28;20087;-57
2020/12/28 11:51:37;;;;;;;23.40;12.80;;;2.10;78.60;;;;;;5041896;28;20663;-57
2020/12/28 11:54:03;;;;;;;21.25;12.52;;;2.10;78.50;;;;;;5043030;28;20086;-59
2020/12/28 11:56:35;;;;;;;18.17;11.98;;;2.10;78.40;;;;;;5045544;28;20520;-59
2020/12/28 11:59:01;;;;;;;25.27;12.60;;;2.00;78.40;;;;;;5049043;28;20033;-57
2020/12/28 12:01:26;;;;;;;19.80;11.63;;;2.00;78.40;;;;;;5047668;28;20651;-59
2020/12/28 12:03:52;;;;;;;22.30;13.70;;;2.00;78.50;;;;;;5048664;28;20028;-59
2020/12/28 12:06:27;;;;;;;24.00;13.15;;;2.00;78.50;;;;;;5050932;28;20025;-59
2020/12/28 12:11:45;;;;;;;20.25;10.93;;;2.00;78.40;;;;;;5049826;28;20035;-59
2020/12/28 12:14:12;;;;;;;22.65;12.23;;;2.10;78.50;;;;;;5050888;28;20030;-59
2020/12/28 12:16:38;;;;;;;26.45;12.82;;;2.10;78.60;;;;;;5048050;28;20068;-56
2020/12/28 12:19:04;;;;;;;23.52;12.80;;;2.10;78.00;;;;;;5044227;28;20029;-58
2020/12/28 12:21:30;;;;;;;23.00;11.88;;;2.10;77.90;;;;;;5048592;28;20052;-59
2020/12/28 12:23:56;;;;;;;21.33;11.15;;;2.10;77.70;;;;;;5050589;28;20049;-59
2020/12/28 12:26:23;;;;;;;22.90;12.63;;;2.10;77.70;;;;;;5051655;28;20059;-58
2020/12/28 12:28:53;;;;;;;21.48;11.02;;;2.10;77.80;;;;;;5051775;28;20794;-59
2020/12/28 12:31:20;;;;;;;22.85;11.23;;;2.10;77.80;;;;;;5048765;28;20025;-59
2020/12/28 12:33:47;;;;;;;20.05;11.32;;;2.00;77.90;;;;;;5051414;28;20033;-59
2020/12/28 12:36:13;;;;;;;24.15;11.25;;;2.10;77.80;;;;;;5048145;28;20047;-58
2020/12/28 12:38:39;;;;;;;17.58;10.70;;;2.10;77.70;;;;;;5030909;28;20020;-59
2020/12/28 12:41:05;;;;;;;18.77;10.85;;;2.10;77.50;;;;;;5050664;28;20032;-58